createdAt,value
2022-12-18T00:01:21.355Z,101822.00
2022-12-18T00:03:48.869Z,101813.47
2022-12-18T00:06:16.749Z,101820.72
2022-12-18T00:08:44.264Z,101823.53
2022-12-18T00:11:16.431Z,101824.16
2022-12-18T00:13:44.213Z,101833.94
2022-12-18T00:16:13.404Z,101839.84
2022-12-18T00:18:40.961Z,101841.38
2022-12-18T00:21:09.843Z,101845.34
2022-12-18T00:23:38.250Z,101843.94
2022-12-18T00:26:08.605Z,101851.41
2022-12-18T00:28:35.223Z,101840.28
2022-12-18T00:31:10.674Z,101834.75
2022-12-18T00:33:38.069Z,101846.97
2022-12-18T00:36:07.137Z,101844.09
2022-12-18T00:38:34.242Z,101853.66
2022-12-18T00:41:01.075Z,101864.41
2022-12-18T00:43:28.032Z,101865.16
2022-12-18T00:45:55.308Z,101869.56
2022-12-18T00:48:22.282Z,101878.66
2022-12-18T00:50:49.692Z,101871.31
2022-12-18T00:53:16.524Z,101868.69
2022-12-18T00:55:44.007Z,101861.09
2022-12-18T00:58:11.760Z,101865.06
2022-12-18T01:00:39.108Z,101867.38
2022-12-18T01:03:06.893Z,101867.38
2022-12-18T01:05:34.015Z,101887.03
2022-12-18T01:08:01.123Z,101881.31
2022-12-18T01:10:27.632Z,101886.25
2022-12-18T01:12:54.161Z,101882.47
2022-12-18T01:15:21.747Z,101884.25
2022-12-18T01:17:48.314Z,101895.81
2022-12-18T01:20:15.015Z,101883.25
2022-12-18T01:22:41.593Z,101884.38
2022-12-18T01:25:08.665Z,101885.81
2022-12-18T01:27:35.544Z,101896.22
2022-12-18T01:30:02.121Z,101900.84
2022-12-18T01:32:31.471Z,101890.56
2022-12-18T01:34:58.180Z,101888.25
2022-12-18T01:37:25.364Z,101898.06
2022-12-18T01:39:55.334Z,101893.22
2022-12-18T01:42:22.406Z,101889.63
2022-12-18T01:45:24.437Z,101877.72
2022-12-18T01:48:03.795Z,101885.53
2022-12-18T01:50:48.146Z,101895.59
2022-12-18T01:53:22.036Z,101891.81
2022-12-18T01:55:53.870Z,101901.28
2022-12-18T01:58:24.293Z,101905.84
2022-12-18T02:00:50.909Z,101901.09
2022-12-18T02:03:17.553Z,101911.13
2022-12-18T02:06:08.773Z,101913.47
2022-12-18T02:09:20.439Z,101908.69
2022-12-18T02:12:20.336Z,101907.66
2022-12-18T02:15:30.092Z,101901.94
2022-12-18T02:18:24.783Z,101895.31
2022-12-18T02:21:00.822Z,101895.53
2022-12-18T02:23:48.077Z,101898.81
2022-12-18T02:26:31.179Z,101908.81
2022-12-18T02:29:03.161Z,101905.19
2022-12-18T02:31:36.439Z,101915.25
2022-12-18T02:34:05.998Z,101913.81
2022-12-18T02:36:34.511Z,101916.22
2022-12-18T02:39:02.691Z,101910.41
2022-12-18T02:41:30.961Z,101917.41
2022-12-18T02:44:00.792Z,101908.34
2022-12-18T02:46:32.253Z,101899.66
2022-12-18T02:49:43.631Z,101906.06
2022-12-18T02:52:27.963Z,101908.97
2022-12-18T02:55:01.308Z,101915.38
2022-12-18T02:57:49.501Z,101906.81
2022-12-18T03:00:32.355Z,101908.44
2022-12-18T03:03:24.578Z,101915.91
2022-12-18T03:05:57.785Z,101913.56
2022-12-18T03:08:28.894Z,101910.38
2022-12-18T03:11:11.991Z,101905.19
2022-12-18T03:13:48.795Z,101918.53
2022-12-18T03:16:23.694Z,101915.03
2022-12-18T03:18:58.361Z,101915.44
2022-12-18T03:21:30.885Z,101919.47
2022-12-18T03:23:58.136Z,101913.22
2022-12-18T03:26:27.888Z,101930.41
2022-12-18T03:29:02.919Z,101929.44
2022-12-18T03:31:32.749Z,101923.31
2022-12-18T03:34:03.218Z,101921.84
2022-12-18T03:36:31.487Z,101921.97
2022-12-18T03:39:00.826Z,101928.56
2022-12-18T03:41:45.841Z,101926.81
2022-12-18T03:44:21.571Z,101929.25
2022-12-18T03:46:56.846Z,101927.63
2022-12-18T03:49:32.199Z,101925.53
2022-12-18T03:52:12.601Z,101927.66
2022-12-18T03:54:41.184Z,101931.38
2022-12-18T03:57:14.519Z,101930.78
2022-12-18T03:59:42.228Z,101937.94
2022-12-18T04:02:10.312Z,101940.44
2022-12-18T04:04:39.580Z,101939.41
2022-12-18T04:07:06.927Z,101935.16
2022-12-18T04:09:36.271Z,101935.25
2022-12-18T04:12:02.832Z,101940.16
2022-12-18T04:14:29.372Z,101949.38
2022-12-18T04:16:55.904Z,101947.03
2022-12-18T04:19:22.436Z,101948.63
2022-12-18T04:21:48.927Z,101954.16
2022-12-18T04:24:15.483Z,101955.22
2022-12-18T04:26:41.983Z,101958.53
2022-12-18T04:29:08.516Z,101958.09
2022-12-18T04:31:35.116Z,101950.81
2022-12-18T04:34:01.838Z,101952.44
2022-12-18T04:36:28.566Z,101953.75
2022-12-18T04:38:55.113Z,101946.94
2022-12-18T04:41:21.986Z,101956.44
2022-12-18T04:43:48.533Z,101960.84
2022-12-18T04:46:15.250Z,101964.78
2022-12-18T04:48:41.871Z,101972.22
2022-12-18T04:51:08.712Z,101972.34
2022-12-18T04:53:35.442Z,101972.47
2022-12-18T04:56:11.003Z,101971.09
2022-12-18T04:58:39.216Z,101959.53
2022-12-18T05:01:05.855Z,101956.84
2022-12-18T05:03:32.845Z,101956.19
2022-12-18T05:05:59.457Z,101961.44
2022-12-18T05:08:26.104Z,101962.09
2022-12-18T05:11:01.521Z,101962.75
2022-12-18T05:13:29.142Z,101965.31
2022-12-18T05:15:56.440Z,101960.94
2022-12-18T05:18:23.975Z,101954.13
2022-12-18T05:20:54.877Z,101956.69
2022-12-18T05:23:23.563Z,101962.09
2022-12-18T05:25:58.396Z,101957.03
2022-12-18T05:28:26.365Z,101956.38
2022-12-18T05:30:55.489Z,101955.16
2022-12-18T05:33:23.962Z,101961.63
2022-12-18T05:36:02.991Z,101966.13
2022-12-18T05:38:31.017Z,101966.34
2022-12-18T05:40:58.189Z,101958.13
2022-12-18T05:43:26.186Z,101955.53
2022-12-18T05:45:53.713Z,101964.22
2022-12-18T05:48:21.092Z,101966.56
2022-12-18T05:50:49.483Z,101970.84
2022-12-18T05:53:18.671Z,101969.31
2022-12-18T05:55:45.382Z,101965.06
2022-12-18T05:58:13.496Z,101976.44
2022-12-18T06:00:41.848Z,101975.66
2022-12-18T06:03:10.147Z,101979.22
2022-12-18T06:05:39.260Z,101977.22
2022-12-18T06:08:06.127Z,101978.75
2022-12-18T06:10:33.317Z,101981.41
2022-12-18T06:12:59.987Z,101987.72
2022-12-18T06:15:26.500Z,101993.94
2022-12-18T06:17:53.091Z,101992.72
2022-12-18T06:20:20.014Z,101993.78
2022-12-18T06:22:46.545Z,101999.72
2022-12-18T06:25:13.121Z,102003.03
2022-12-18T06:27:39.687Z,102009.25
2022-12-18T06:30:07.142Z,102002.63
2022-12-18T06:32:33.695Z,102003.81
2022-12-18T06:35:00.213Z,102008.31
2022-12-18T06:37:27.217Z,102006.63
2022-12-18T06:39:54.901Z,102011.81
2022-12-18T06:42:25.286Z,102000.84
2022-12-18T06:44:51.834Z,102000.06
2022-12-18T06:47:18.911Z,101998.28
2022-12-18T06:49:45.495Z,102001.03
2022-12-18T06:52:11.998Z,102008.00
2022-12-18T06:54:38.538Z,102010.34
2022-12-18T06:57:05.048Z,102012.06
2022-12-18T06:59:31.600Z,102020.25
2022-12-18T07:01:58.271Z,102029.06
2022-12-18T07:04:32.741Z,102028.03
2022-12-18T07:06:59.314Z,102026.03
2022-12-18T07:09:26.741Z,102033.97
2022-12-18T07:11:53.514Z,102032.88
2022-12-18T07:14:20.252Z,102033.81
2022-12-18T07:16:47.050Z,102029.38
2022-12-18T07:19:13.641Z,102034.00
2022-12-18T07:21:40.305Z,102027.47
2022-12-18T07:24:07.214Z,102031.41
2022-12-18T07:26:33.756Z,102040.16
2022-12-18T07:29:00.302Z,102038.06
2022-12-18T07:31:28.031Z,102038.47
2022-12-18T07:33:55.191Z,102044.16
2022-12-18T07:36:25.100Z,102045.50
2022-12-18T07:38:53.415Z,102045.41
2022-12-18T07:41:20.373Z,102053.38
2022-12-18T07:43:47.605Z,102051.47
2022-12-18T07:46:15.549Z,102051.56
2022-12-18T07:48:43.472Z,102047.97
2022-12-18T07:51:14.829Z,102060.88
2022-12-18T07:53:42.559Z,102053.28
2022-12-18T07:56:27.048Z,102060.50
2022-12-18T07:58:54.939Z,102071.81
2022-12-18T08:01:21.652Z,102060.84
2022-12-18T08:03:48.372Z,102064.72
2022-12-18T08:06:15.976Z,102052.75
2022-12-18T08:08:43.253Z,102049.13
2022-12-18T08:11:09.828Z,102052.25
2022-12-18T08:13:36.656Z,102050.84
2022-12-18T08:16:06.659Z,102038.34
2022-12-18T08:18:34.718Z,102030.97
2022-12-18T08:21:15.996Z,102043.47
2022-12-18T08:23:43.614Z,102033.88
2022-12-18T08:26:14.710Z,102042.34
2022-12-18T08:28:41.639Z,102040.84
2022-12-18T08:31:09.017Z,102049.69
2022-12-18T08:33:38.812Z,102044.88
2022-12-18T08:36:06.721Z,102041.56
2022-12-18T08:38:34.283Z,102045.09
2022-12-18T08:41:06.366Z,102036.22
2022-12-18T08:43:51.672Z,102039.97
2022-12-18T08:46:19.242Z,102042.78
2022-12-18T08:48:46.076Z,102050.75
2022-12-18T08:51:12.689Z,102046.59
2022-12-18T08:53:39.996Z,102042.28
2022-12-18T08:56:07.295Z,102046.16
2022-12-18T08:58:33.842Z,102049.22
2022-12-18T09:01:10.196Z,102059.47
2022-12-18T09:03:37.830Z,102059.81
2022-12-18T09:06:05.821Z,102055.03
2022-12-18T09:08:35.785Z,102049.84
2022-12-18T09:11:02.205Z,102044.25
2022-12-18T09:13:28.979Z,102044.56
2022-12-18T09:15:56.678Z,102046.59
2022-12-18T09:18:25.279Z,102050.41
2022-12-18T09:20:53.790Z,102068.00
2022-12-18T09:23:20.761Z,102084.09
2022-12-18T09:25:47.524Z,102084.50
2022-12-18T09:28:19.383Z,102086.19
2022-12-18T09:30:50.258Z,102086.59
2022-12-18T09:33:18.032Z,102069.97
2022-12-18T09:35:45.989Z,102072.50
2022-12-18T09:38:14.981Z,102073.56
2022-12-18T09:40:48.362Z,102066.63
2022-12-18T09:43:20.513Z,102062.03
2022-12-18T09:46:00.156Z,102061.97
2022-12-18T09:48:32.003Z,102056.66
2022-12-18T09:51:05.097Z,102054.66
2022-12-18T09:53:37.393Z,102050.78
2022-12-18T09:56:06.062Z,102043.47
2022-12-18T09:58:48.396Z,102046.47
2022-12-18T10:01:21.771Z,102038.88
2022-12-18T10:03:49.045Z,102029.78
2022-12-18T10:06:24.556Z,102030.03
2022-12-18T10:09:02.925Z,102030.09
2022-12-18T10:11:49.268Z,102016.66
2022-12-18T10:14:34.077Z,102003.25
2022-12-18T10:17:15.011Z,101998.25
2022-12-18T10:20:15.023Z,101995.09
2022-12-18T10:23:05.212Z,101996.16
2022-12-18T10:26:02.386Z,101989.63
2022-12-18T10:28:31.831Z,101982.94
2022-12-18T10:30:59.466Z,101978.13
2022-12-18T10:33:30.937Z,101972.34
2022-12-18T10:35:57.638Z,101962.22
2022-12-18T10:38:32.907Z,101960.84
2022-12-18T10:41:26.856Z,101958.38
2022-12-18T10:44:13.902Z,101939.44
2022-12-18T10:46:40.619Z,101943.06
2022-12-18T10:49:24.395Z,101936.47
2022-12-18T10:51:52.310Z,101945.19
2022-12-18T10:54:26.242Z,101950.50
2022-12-18T10:56:52.797Z,101950.53
2022-12-18T10:59:19.871Z,101953.13
2022-12-18T11:01:51.616Z,101947.25
2022-12-18T11:04:29.539Z,101949.69
2022-12-18T11:07:03.925Z,101942.25
2022-12-18T11:09:35.584Z,101943.25
2022-12-18T11:12:11.178Z,101938.09
2022-12-18T11:14:47.412Z,101932.19
2022-12-18T11:17:35.894Z,101915.81
2022-12-18T11:20:06.063Z,101923.66
2022-12-18T11:22:35.859Z,101918.53
2022-12-18T11:25:32.390Z,101908.97
2022-12-18T11:28:30.773Z,101914.34
2022-12-18T11:31:32.235Z,101905.84
2022-12-18T11:34:31.493Z,101917.91
2022-12-18T11:37:01.979Z,101912.75
2022-12-18T11:39:31.541Z,101907.59
2022-12-18T11:42:13.001Z,101907.66
2022-12-18T11:44:43.607Z,101906.00
2022-12-18T11:47:12.874Z,101905.97
2022-12-18T11:49:41.492Z,101905.25
2022-12-18T11:52:23.736Z,101908.66
2022-12-18T11:55:01.286Z,101913.94
2022-12-18T11:57:30.451Z,101925.34
2022-12-18T12:00:16.733Z,101928.81
2022-12-18T12:03:01.483Z,101919.16
2022-12-18T12:05:51.889Z,101916.66
2022-12-18T12:08:18.358Z,101916.72
2022-12-18T12:11:03.347Z,101921.97
2022-12-18T12:13:33.542Z,101932.44
2022-12-18T12:16:19.436Z,101934.25
2022-12-18T12:18:55.008Z,101935.06
2022-12-18T12:21:45.135Z,101944.53
2022-12-18T12:24:17.748Z,101941.06
2022-12-18T12:26:56.395Z,101940.28
2022-12-18T12:29:54.235Z,101940.28
2022-12-18T12:32:44.520Z,101943.06
2022-12-18T12:35:43.405Z,101950.81
2022-12-18T12:38:51.587Z,101960.22
2022-12-18T12:41:41.984Z,101971.47
2022-12-18T12:44:14.971Z,101967.97
2022-12-18T12:46:43.499Z,101963.78
2022-12-18T12:49:16.958Z,101960.28
2022-12-18T12:51:47.120Z,101937.91
2022-12-18T12:54:20.590Z,101940.28
2022-12-18T12:57:04.287Z,101947.16
2022-12-18T12:59:30.744Z,101947.28
2022-12-18T13:02:30.020Z,101945.47
2022-12-18T13:05:07.510Z,101938.44
2022-12-18T13:07:40.710Z,101930.44
2022-12-18T13:10:15.912Z,101935.34
2022-12-18T13:12:58.294Z,101937.97
2022-12-18T13:15:46.024Z,101925.78
2022-12-18T13:18:14.830Z,101921.47
2022-12-18T13:20:53.138Z,101924.75
2022-12-18T13:23:25.116Z,101927.09
2022-12-18T13:26:11.378Z,101932.59
2022-12-18T13:28:47.477Z,101933.28
2022-12-18T13:31:34.902Z,101940.94
2022-12-18T13:34:27.447Z,101935.84
2022-12-18T13:36:58.296Z,101935.91
2022-12-18T13:39:35.281Z,101935.81
2022-12-18T13:42:08.641Z,101935.00
2022-12-18T13:44:41.660Z,101933.22
2022-12-18T13:47:36.196Z,101936.03
2022-12-18T13:50:11.211Z,101928.28
2022-12-18T13:52:40.388Z,101925.69
2022-12-18T13:55:17.311Z,101928.09
2022-12-18T13:57:44.247Z,101924.59
2022-12-18T14:00:22.736Z,101930.41
2022-12-18T14:02:51.357Z,101930.22
2022-12-18T14:05:27.301Z,101936.22
2022-12-18T14:07:55.923Z,101928.28
2022-12-18T14:10:47.898Z,101935.97
2022-12-18T14:13:16.232Z,101930.84
2022-12-18T14:15:47.471Z,101938.44
2022-12-18T14:18:25.539Z,101928.84
2022-12-18T14:20:55.395Z,101932.25
2022-12-18T14:23:29.221Z,101930.19
2022-12-18T14:25:57.765Z,101929.22
2022-12-18T14:28:27.797Z,101920.59
2022-12-18T14:30:55.756Z,101910.19
2022-12-18T14:33:25.614Z,101908.41
2022-12-18T14:36:05.371Z,101896.19
2022-12-18T14:38:42.478Z,101896.03
2022-12-18T14:41:13.678Z,101903.66
2022-12-18T14:43:43.182Z,101901.97
2022-12-18T14:46:35.561Z,101912.03
2022-12-18T14:49:27.190Z,101910.28
2022-12-18T14:52:05.747Z,101906.66
2022-12-18T14:54:36.199Z,101912.47
2022-12-18T14:57:05.434Z,101925.97
2022-12-18T14:59:33.017Z,101926.13
2022-12-18T15:02:06.133Z,101924.88
2022-12-18T15:04:36.265Z,101915.31
2022-12-18T15:07:24.337Z,101912.78
2022-12-18T15:10:08.872Z,101919.50
2022-12-18T15:12:42.300Z,101916.66
2022-12-18T15:15:33.979Z,101915.81
2022-12-18T15:18:14.927Z,101918.22
2022-12-18T15:23:54.869Z,101914.63
2022-12-18T15:26:23.159Z,101908.66
2022-12-18T15:28:56.488Z,101904.34
2022-12-18T15:31:37.842Z,101909.50
2022-12-18T15:34:22.429Z,101899.88
2022-12-18T15:36:49.221Z,101911.88
2022-12-18T15:39:15.773Z,101893.91
2022-12-18T15:42:02.261Z,101884.34
2022-12-18T15:44:28.860Z,101886.94
2022-12-18T15:46:59.324Z,101880.97
2022-12-18T15:49:26.252Z,101891.00
2022-12-18T15:51:56.012Z,101892.91
2022-12-18T15:54:42.636Z,101899.88
2022-12-18T15:57:24.789Z,101892.72
2022-12-18T15:59:57.532Z,101899.78
2022-12-18T16:02:24.893Z,101889.44
2022-12-18T16:04:55.045Z,101884.41
2022-12-18T16:07:24.624Z,101884.19
2022-12-18T16:09:52.266Z,101876.38
2022-12-18T16:12:25.327Z,101874.91
2022-12-18T16:14:51.948Z,101874.66
2022-12-18T16:17:18.793Z,101869.63
2022-12-18T16:19:45.619Z,101870.59
2022-12-18T16:22:24.140Z,101877.56
2022-12-18T16:24:52.163Z,101879.13
2022-12-18T16:27:19.471Z,101888.53
2022-12-18T16:29:46.185Z,101882.34
2022-12-18T16:32:16.399Z,101873.22
2022-12-18T16:34:44.601Z,101871.50
2022-12-18T16:37:13.802Z,101877.97
2022-12-18T16:39:41.085Z,101885.38
2022-12-18T16:42:15.333Z,101883.38
2022-12-18T16:44:42.204Z,101865.53
2022-12-18T16:47:09.284Z,101862.97
2022-12-18T16:49:37.775Z,101863.78
2022-12-18T16:52:05.459Z,101870.81
2022-12-18T16:54:33.582Z,101868.16
2022-12-18T16:57:00.866Z,101867.44
2022-12-18T16:59:27.698Z,101865.72
2022-12-18T17:01:55.708Z,101859.66
2022-12-18T17:04:22.453Z,101864.84
2022-12-18T17:07:10.216Z,101851.16
2022-12-18T17:09:37.710Z,101850.22
2022-12-18T17:12:04.817Z,101853.63
2022-12-18T17:14:32.841Z,101847.72
2022-12-18T17:17:25.893Z,101848.63
2022-12-18T17:19:52.767Z,101848.31
2022-12-18T17:22:20.976Z,101840.94
2022-12-18T17:24:50.771Z,101842.59
2022-12-18T17:27:17.325Z,101847.50
2022-12-18T17:29:47.896Z,101846.69
2022-12-18T17:32:18.496Z,101840.50
2022-12-18T17:34:45.537Z,101837.44
2022-12-18T17:37:12.502Z,101839.97
2022-12-18T17:39:39.160Z,101836.59
2022-12-18T17:42:05.840Z,101834.03
2022-12-18T17:44:34.393Z,101839.16
2022-12-18T17:47:01.392Z,101837.28
2022-12-18T17:49:28.111Z,101839.81
2022-12-18T17:51:54.734Z,101826.22
2022-12-18T17:54:21.415Z,101816.88
2022-12-18T17:56:47.917Z,101813.50
2022-12-18T17:59:14.622Z,101818.81
2022-12-18T18:01:44.777Z,101818.75
2022-12-18T18:04:12.662Z,101811.94
2022-12-18T18:06:39.592Z,101812.72
2022-12-18T18:09:12.541Z,101812.09
2022-12-18T18:12:02.735Z,101815.31
2022-12-18T18:14:29.676Z,101812.94
2022-12-18T18:16:56.283Z,101801.13
2022-12-18T18:19:25.101Z,101795.19
2022-12-18T18:21:53.726Z,101797.72
2022-12-18T18:24:25.925Z,101810.75
2022-12-18T18:26:52.728Z,101789.41
2022-12-18T18:29:21.919Z,101800.56
2022-12-18T18:31:48.801Z,101791.28
2022-12-18T18:34:18.118Z,101791.16
2022-12-18T18:36:48.472Z,101781.91
2022-12-18T18:39:15.532Z,101793.03
2022-12-18T18:41:47.019Z,101780.97
2022-12-18T18:44:14.729Z,101791.50
2022-12-18T18:46:41.515Z,101782.84
2022-12-18T18:49:08.050Z,101774.94
2022-12-18T18:51:35.269Z,101765.56
2022-12-18T18:54:02.229Z,101774.28
2022-12-18T18:59:15.985Z,101764.09
2022-12-18T19:01:42.915Z,101757.81
2022-12-18T19:04:10.076Z,101744.16
2022-12-18T19:06:36.662Z,101746.81
2022-12-18T19:09:05.000Z,101748.63
2022-12-18T19:11:50.837Z,101745.91
2022-12-18T19:14:17.554Z,101745.25
2022-12-18T19:16:45.533Z,101736.59
2022-12-18T19:19:13.367Z,101728.88
2022-12-18T19:21:40.458Z,101717.75
2022-12-18T19:24:09.599Z,101721.31
2022-12-18T19:26:40.406Z,101723.75
2022-12-18T19:29:09.553Z,101721.41
2022-12-18T19:31:37.493Z,101711.13
2022-12-18T19:34:07.877Z,101709.34
2022-12-18T19:36:36.602Z,101712.66
2022-12-18T19:39:09.631Z,101705.00
2022-12-18T19:41:36.177Z,101687.00
2022-12-18T19:44:08.072Z,101679.22
2022-12-18T19:46:35.519Z,101686.22
2022-12-18T19:49:02.219Z,101680.97
2022-12-18T19:51:30.512Z,101686.22
2022-12-18T19:53:59.885Z,101686.16
2022-12-18T19:56:32.510Z,101685.41
2022-12-18T19:58:59.394Z,101677.53
2022-12-18T20:01:27.224Z,101675.03
2022-12-18T20:03:54.649Z,101666.56
2022-12-18T20:06:25.602Z,101675.03
2022-12-18T20:08:54.004Z,101677.78
2022-12-18T20:11:25.840Z,101670.72
2022-12-18T20:13:52.857Z,101671.78
2022-12-18T20:16:19.522Z,101669.22
2022-12-18T20:18:46.487Z,101671.84
2022-12-18T20:21:14.199Z,101673.44
2022-12-18T20:23:41.978Z,101672.66
2022-12-18T20:26:09.040Z,101681.22
2022-12-18T20:28:36.012Z,101682.09
2022-12-18T20:31:08.209Z,101683.03
2022-12-18T20:33:37.131Z,101673.56
2022-12-18T20:36:06.375Z,101668.25
2022-12-18T20:38:35.297Z,101667.44
2022-12-18T20:41:06.500Z,101664.06
2022-12-18T20:43:33.062Z,101667.38
2022-12-18T20:46:04.027Z,101657.91
2022-12-18T20:48:32.103Z,101645.09
2022-12-18T20:51:11.356Z,101620.13
2022-12-18T20:53:42.096Z,101624.44
2022-12-18T20:56:17.764Z,101632.38
2022-12-18T20:58:48.742Z,101636.69
2022-12-18T21:01:19.781Z,101639.31
2022-12-18T21:03:47.404Z,101640.09
2022-12-18T21:06:15.560Z,101638.56
2022-12-18T21:08:42.666Z,101640.25
2022-12-18T21:11:40.304Z,101648.00
2022-12-18T21:14:10.838Z,101639.50
2022-12-18T21:16:38.431Z,101628.28
2022-12-18T21:19:04.993Z,101638.78
2022-12-18T21:21:34.051Z,101633.63
2022-12-18T21:24:06.221Z,101643.13
2022-12-18T21:26:32.961Z,101638.84
2022-12-18T21:29:02.826Z,101634.63
2022-12-18T21:31:32.461Z,101632.81
2022-12-18T21:34:01.269Z,101629.41
2022-12-18T21:36:30.226Z,101638.97
2022-12-18T21:38:57.712Z,101642.38
2022-12-18T21:41:44.369Z,101640.66
2022-12-18T21:44:14.007Z,101630.16
2022-12-18T21:46:44.203Z,101631.97
2022-12-18T21:49:12.558Z,101627.50
2022-12-18T21:51:39.476Z,101632.81
2022-12-18T21:54:06.293Z,101634.47
2022-12-18T21:57:13.452Z,101631.97
2022-12-18T21:59:42.555Z,101631.97
2022-12-18T22:02:15.936Z,101613.88
2022-12-18T22:04:43.877Z,101611.94
2022-12-18T22:07:11.305Z,101606.81
2022-12-18T22:09:38.191Z,101613.78
2022-12-18T22:12:05.412Z,101612.94
2022-12-18T22:14:32.241Z,101615.38
2022-12-18T22:16:58.861Z,101613.72
2022-12-18T22:19:26.505Z,101614.50
2022-12-18T22:21:53.995Z,101608.56
2022-12-18T22:24:25.802Z,101613.69
2022-12-18T22:27:01.585Z,101611.09
2022-12-18T22:29:47.375Z,101605.06
2022-12-18T22:32:17.827Z,101602.41
2022-12-18T22:35:01.728Z,101599.91
2022-12-18T22:37:31.690Z,101599.00
2022-12-18T22:39:58.231Z,101591.31
2022-12-18T22:42:25.627Z,101590.47
2022-12-18T22:44:52.134Z,101593.03
2022-12-18T22:47:18.758Z,101588.78
2022-12-18T22:49:45.323Z,101588.78
2022-12-18T22:52:11.938Z,101585.28
2022-12-18T22:54:40.005Z,101576.63
2022-12-18T22:57:06.644Z,101555.16
2022-12-18T22:59:33.926Z,101562.00
2022-12-18T23:02:00.543Z,101565.50
2022-12-18T23:04:36.334Z,101557.72
2022-12-18T23:07:05.493Z,101556.03
2022-12-18T23:09:33.172Z,101564.53
2022-12-18T23:12:00.125Z,101561.22
2022-12-18T23:14:27.608Z,101557.78
2022-12-18T23:16:54.194Z,101541.44
2022-12-18T23:19:21.404Z,101541.38
2022-12-18T23:21:50.642Z,101524.94
2022-12-18T23:24:17.277Z,101512.84
2022-12-18T23:26:43.901Z,101516.38
2022-12-18T23:29:10.500Z,101520.72
2022-12-18T23:31:39.254Z,101506.88
2022-12-18T23:34:07.443Z,101503.47
2022-12-18T23:36:45.714Z,101496.53
2022-12-18T23:39:28.972Z,101493.81
2022-12-18T23:42:00.704Z,101480.84
2022-12-18T23:44:28.075Z,101479.16
2022-12-18T23:46:55.492Z,101483.47
2022-12-18T23:49:22.114Z,101468.91
2022-12-18T23:51:48.842Z,101465.50
2022-12-18T23:54:15.435Z,101465.44
2022-12-18T23:56:45.207Z,101461.06
2022-12-18T23:59:11.915Z,101472.28
